Station: Edithburgh  

  Atmospheric Gas Attenuation - ITU Rec 676-11   ----------------- dB/100km -----------------
Date Time Temp RH % AH g/m3 Dew Point Wind Direction Speed kph Gust kph Barometer mB Rainfall Since 9am 24GHz 47GHz 76GHz 122GHz 134GHz 241GHz
08/05 03:00 14.7 62 7.81 7.5 22 33 1030.5 0 17.8 25.0 37.0 96.7 88.4 303.3
08/05 02:50 14.7 63 7.93 7.7 22 26 1030.5 0 18.1 25.2 37.5 98.0 89.9 308.8
08/05 02:40 14.7 65 8.18 8.2 20 28 1030.4 0 18.6 25.6 38.4 100.6 93.2 320.1
08/05 02:30 14.6 67 8.38 8.5 20 28 1030.5 0 19.1 26.0 39.3 102.8 95.9 329.6
08/05 02:20 14.7 66 8.31 8.4 22 30 1030.7 0 18.9 25.8 39.0 102.0 94.9 326.1
08/05 02:10 14.7 65 8.18 8.2 19 22 1030.8 0 18.6 25.6 38.5 100.6 93.2 320.2
08/05 02:00 14.7 64 8.06 8 19 32 1030.8 0 18.4 25.4 38.0 99.4 91.6 314.7
08/05 01:50 14.5 62 7.71 7.3 15 20 1030.8 0 17.6 24.9 36.7 96.0 87.4 299.7
08/05 01:40 14.5 60 7.46 7 22 24 1030.9 0 17.1 24.5 35.7 93.4 84.2 288.5
08/05 01:30 14.6 63 7.88 7.6 24 33 1030.8 0 18.0 25.2 37.3 97.6 89.4 307.0
08/05 01:20 14.7 63 7.93 7.9 30 33 1030.8 0 18.1 25.2 37.5 98.0 90.0 308.8
08/05 01:10 14.6 66 8.26 8.3 24 30 1030.8 0 18.8 25.8 38.8 101.6 94.4 324.2
08/05 01:00 14.6 69 8.63 9 24 33 1030.8 0 19.6 26.4 40.3 105.5 99.2 341.3
08/05 00:50 14.6 67 8.38 8.5 26 30 1030.8 0 19.1 26.0 39.3 102.9 95.9 329.7
08/05 00:40 14.7 65 8.18 8.2 24 28 1030.8 0 18.6 25.6 38.5 100.6 93.2 320.2
08/05 00:30 14.7 64 8.06 8 22 28 1030.9 0 18.4 25.4 38.0 99.4 91.6 314.7
08/05 00:20 14.7 62 7.81 7.5 20 24 1030.8 0 17.8 25.0 37.0 96.8 88.4 303.4
08/05 00:10 14.6 60 7.51 7.1 20 28 1030.9 0 17.2 24.6 35.9 93.8 84.7 290.4
08/05 00:00 14.5 62 7.71 7.3 22 33 1030.9 0 17.6 24.9 36.7 96.0 87.4 299.7
07/05 23:50 14.5 62 7.71 7.3 20 22 1030.9 0 17.6 24.9 36.7 96.0 87.4 299.7
07/05 23:40 14.5 62 7.71 7.3 22 26 1031 0 17.6 24.9 36.7 96.0 87.4 299.7
07/05 23:30 14.5 62 7.71 7.3 22 30 1030.9 0 17.6 24.9 36.7 96.0 87.4 299.7
07/05 23:20 14.6 63 7.88 7.8 19 20 1031 0 18.0 25.2 37.3 97.6 89.4 307.0
07/05 23:10 14.5 63 7.84 7.5 19 26 1031 0 17.9 25.1 37.2 97.3 89.0 305.6
07/05 23:00 14.5 63 7.84 7.5 19 32 1031.1 0 17.9 25.1 37.2 97.3 89.0 305.6
07/05 22:50 14.4 62 7.66 7.2 22 26 1031.2 0 17.5 24.9 36.6 95.6 86.9 297.9
07/05 22:40 14 64 7.72 7.3 11 19 1031.2 0 17.7 25.1 37.0 96.7 88.1 302.1
07/05 22:30 13.9 64 7.67 7.2 13 22 1031.3 0 17.6 25.1 36.9 96.3 87.5 300.3
07/05 22:20 14 64 7.72 7.3 15 19 1031.4 0 17.7 25.1 37.0 96.7 88.1 302.2
07/05 22:10 14.2 65 7.94 7.7 13 15 1031.4 0 18.1 25.4 37.8 98.8 90.7 311.4
07/05 22:00 14.3 65 7.99 7.8 20 32 1031.4 0 18.2 25.5 37.9 99.2 91.2 313.3
07/05 21:50 14.4 63 7.79 7.4 19 22 1031.5 0 17.8 25.1 37.1 97.0 88.5 303.8
07/05 21:40 14.4 60 7.42 6.9 17 26 1031.5 0 17.0 24.5 35.7 93.1 83.8 287.3
07/05 21:30 14.4 57 7.05 6 24 39 1031.5 0 16.3 24.0 34.2 89.4 79.1 270.9
07/05 21:20 14.5 60 7.46 6.8 22 26 1031.4 0 17.1 24.6 35.8 93.4 84.2 288.7
07/05 21:10 14.4 60 7.42 6.9 22 28 1031.4 0 17.0 24.5 35.7 93.1 83.8 287.2
07/05 21:00 14.4 60 7.42 6.7 22 32 1031.5 0 17.0 24.5 35.7 93.1 83.8 287.3
07/05 20:50 14.3 62 7.62 7.1 22 26 1031.4 0 17.5 24.9 36.5 95.3 86.5 296.5
07/05 20:40 14.2 65 7.94 7.7 19 22 1031.4 0 18.1 25.4 37.8 98.8 90.7 311.4
07/05 20:30 14.3 64 7.86 7.6 20 30 1031.5 0 18.0 25.2 37.4 97.8 89.6 307.4
07/05 20:20 14.3 66 8.11 8 19 20 1031.4 0 18.5 25.6 38.4 100.5 92.8 318.7
07/05 20:10 14.3 64 7.86 7.6 28 33 1031.4 0 18.0 25.2 37.4 97.8 89.6 307.4
07/05 20:00 14.3 64 7.86 7.6 24 35 1031.5 0 18.0 25.2 37.4 97.8 89.6 307.4
07/05 19:50 14.3 63 7.74 7.3 13 17 1031.4 0 17.7 25.1 36.9 96.6 88.0 301.9
07/05 19:40 14.2 65 7.94 7.7 19 20 1031.4 0 18.1 25.4 37.8 98.8 90.7 311.4
07/05 19:30 14.1 65 7.89 7.6 13 19 1031.5 0 18.0 25.4 37.6 98.4 90.2 309.5
07/05 19:20 14 66 7.96 7.7 9 11 1031.5 0 18.2 25.5 38.0 99.3 91.2 313.1
07/05 19:10 14 64 7.72 7.3 11 13 1031.5 0 17.7 25.1 37.0 96.7 88.1 302.2
07/05 19:00 14.1 62 7.52 6.9 15 20 1031.4 0 17.3 24.8 36.2 94.5 85.4 292.8
07/05 18:50 14.2 59 7.2 6.3 15 15 1031.2 0 16.6 24.2 34.9 91.1 81.2 278.1
07/05 18:40 14.3 60 7.37 6.6 11 13 1031.2 0 16.9 24.5 35.5 92.7 83.3 285.3
07/05 18:30 14.3 60 7.37 6.6 17 28 1031.1 0 16.9 24.5 35.5 92.7 83.3 285.3
07/05 18:20 14.3 60 7.37 6.6 20 26 1031.1 0 16.9 24.5 35.5 92.7 83.3 285.3
07/05 18:10 14.4 58 7.17 6.2 22 26 1031 0 16.5 24.1 34.7 90.5 80.6 276.1
07/05 18:00 14.5 61 7.59 7.1 24 32 1030.9 0 17.4 24.7 36.2 94.7 85.8 294.3
07/05 17:50 14.7 58 7.3 6.5 20 24 1030.8 0 16.8 24.2 35.0 91.5 81.9 280.7
07/05 17:40 14.7 55 6.92 5.7 22 26 1030.8 0 16.0 23.7 33.6 87.7 77.2 264.1
07/05 17:30 14.7 55 6.92 5.8 17 24 1030.7 0 16.0 23.7 33.6 87.6 77.2 264.0
07/05 17:20 15 53 6.8 5.5 17 19 1030.7 0 15.7 23.4 33.0 86.1 75.4 257.9
07/05 17:10 14.9 49 6.24 4.5 11 13 1030.7 0 14.5 22.6 31.0 80.7 68.7 234.3
07/05 17:00 15.2 50 6.49 4.9 17 22 1030.8 0 15.0 22.9 31.8 82.9 71.4 244.0
07/05 16:50 15.5 50 6.61 5.1 19 22 1030.7 0 15.3 23.0 32.1 83.7 72.6 248.2
07/05 16:40 15.7 50 6.69 5.3 22 24 1030.7 0 15.4 23.1 32.3 84.3 73.4 251.0
07/05 16:30 15.8 49 6.6 5.1 19 26 1030.6 0 15.2 22.9 32.0 83.3 72.2 246.8
07/05 16:20 15.5 50 6.61 5.1 17 20 1030.6 0 15.3 23.0 32.1 83.7 72.6 248.1
07/05 16:10 15.7 50 6.69 5.3 15 19 1030.6 0 15.4 23.0 32.3 84.3 73.4 250.9
07/05 16:00 15.6 53 7.05 6.1 15 22 1030.6 0 16.2 23.6 33.7 88.0 77.9 266.7
07/05 15:50 15.4 57 7.49 6.9 17 19 1030.5 0 17.1 24.3 35.4 92.6 83.6 286.5
07/05 15:40 15.4 57 7.49 7.1 17 19 1030.6 0 17.1 24.3 35.5 92.6 83.6 286.6
07/05 15:30 15.5 58 7.67 7.3 17 26 1030.6 0 17.5 24.6 36.1 94.3 85.7 294.1
07/05 15:20 15.7 57 7.63 7.4 17 19 1030.6 0 17.4 24.5 35.9 93.7 85.0 291.6
07/05 15:10 15.4 59 7.75 7.4 22 28 1030.7 0 17.7 24.7 36.5 95.3 86.9 298.1
07/05 15:00 15.4 59 7.75 7.4 20 28 1030.7 0 17.7 24.7 36.5 95.3 86.9 298.1
07/05 14:50 15.3 59 7.7 7.3 20 28 1030.7 0 17.6 24.7 36.3 94.9 86.3 296.2
07/05 14:40 15.6 57 7.58 7.1 24 28 1030.7 0 17.3 24.4 35.7 93.3 84.5 289.8
07/05 14:30 15.5 55 7.27 6.5 19 35 1030.8 0 16.7 24.0 34.6 90.3 80.7 276.6
07/05 14:20 15.3 55 7.18 6.5 19 22 1030.8 0 16.5 23.9 34.3 89.6 79.8 273.4
07/05 14:10 15.6 57 7.58 7.3 22 24 1030.8 0 17.3 24.4 35.7 93.3 84.5 289.8
07/05 14:00 15.5 57 7.53 7 17 22 1030.8 0 17.2 24.4 35.6 92.9 84.0 288.0
07/05 13:50 15.7 56 7.49 6.9 15 20 1030.9 0 17.1 24.3 35.3 92.3 83.3 285.6
07/05 13:40 16 57 7.77 7.5 15 17 1030.9 0 17.7 24.6 36.3 94.8 86.5 296.8
07/05 13:30 16.1 55 7.54 7.1 13 24 1031 0 17.2 24.2 35.4 92.4 83.5 286.3
07/05 13:20 15.6 56 7.45 6.8 11 17 1031 0 17.0 24.2 35.2 92.0 82.9 284.2
07/05 13:10 15.3 55 7.18 6.3 15 17 1031 0 16.5 23.9 34.3 89.6 79.8 273.4
07/05 13:00 15.6 54 7.18 6.3 11 19 1031 0 16.5 23.8 34.2 89.3 79.5 272.4
07/05 12:50 15.5 52 6.87 5.9 11 13 1031.1 0 15.8 23.4 33.1 86.3 75.8 259.4
07/05 12:40 16.1 53 7.26 6.5 13 19 1031.1 0 16.6 23.8 34.3 89.5 80.0 274.2
07/05 12:30 15.4 54 7.09 6.2 17 26 1031.2 0 16.3 23.7 34.0 88.6 78.6 269.2
07/05 12:20 15.7 50 6.69 5.3 20 24 1031.3 0 15.4 23.1 32.4 84.3 73.5 251.1
07/05 12:10 15.9 49 6.64 5.2 20 28 1031.4 0 15.3 23.0 32.1 83.7 72.7 248.4
07/05 12:00 16.1 48 6.58 5.1 17 26 1031.5 0 15.2 22.8 31.8 82.9 71.8 245.2
07/05 11:50 15.4 50 6.57 5 13 15 1031.6 0 15.2 23.0 32.1 83.5 72.3 247.0
07/05 11:40 15.6 49 6.52 4.9 15 20 1031.6 0 15.1 22.9 31.8 82.8 71.5 244.2
07/05 11:30 15.8 49 6.6 5.1 22 28 1031.6 0 15.2 22.9 32.0 83.4 72.3 247.0
07/05 11:20 16.3 46 6.38 4.9 22 28 1031.6 0 14.8 22.5 31.0 80.7 69.2 236.3
07/05 11:10 16 47 6.4 4.7 19 20 1031.7 0 14.8 22.6 31.2 81.2 69.7 238.0
07/05 11:00 16.6 49 6.92 5.9 20 30 1031.7 0 15.9 23.2 32.9 85.7 75.4 258.1
07/05 10:50 15.6 46 6.12 4 24 28 1031.5 0 14.2 22.3 30.3 78.9 66.7 227.4
07/05 10:40 15.3 48 6.27 4.3 22 26 1031.4 0 14.6 22.6 31.0 80.7 68.7 234.5
07/05 10:30 15.8 47 6.33 4.5 22 33 1031.3 0 14.7 22.5 31.0 80.7 69.0 235.6

Last Refresh: 08-May-2026 03:03:56

Bureau of Meteorology